This is the latest recevied weather packets stored in our database for station/object KD7KCN-5. If no packets are shown the sender has not sent any weather packets the latest 10 day(s).
| Time | Temp. | Humidity | Pressure | Rain* | Wind** | Luminosity | Snow |
|---|---|---|---|---|---|---|---|
| 1777528925 | 11.11° C | 41% | 1016.1 hPa | 0 mm | - | 0 W/m² | - |
| 1777528325 | 11.67° C | 41% | 1016.1 hPa | 0 mm | - | 0 W/m² | - |
| 1777527725 | 11.67° C | 41% | 1016 hPa | 0 mm | - | 0 W/m² | - |
| 1777527126 | 11.67° C | 40% | 1016 hPa | 0 mm | - | 0 W/m² | - |
| 1777525925 | 11.67° C | 39% | 1015.8 hPa | 0 mm | - | 0 W/m² | - |
| 1777525325 | 11.67° C | 40% | 1015.9 hPa | 0 mm | - | 0 W/m² | - |
| 1777524726 | 11.67° C | 40% | 1016 hPa | 0 mm | - | 0 W/m² | - |
| 1777524128 | 11.67° C | 40% | 1016 hPa | 0 mm | - | 0 W/m² | - |
| 1777523525 | 12.22° C | 39% | 1015.9 hPa | 0 mm | - | 0 W/m² | - |
| 1777522925 | 12.78° C | 37% | 1015.9 hPa | 0 mm | - | 0 W/m² | - |
| 1777521726 | 12.78° C | 37% | 1015.7 hPa | 0 mm | - | 0 W/m² | - |
| 1777521125 | 12.78° C | 36% | 1015.6 hPa | 0 mm | - | 0 W/m² | - |
| 1777520527 | 13.33° C | 36% | 1015.6 hPa | 0 mm | - | 0 W/m² | - |
| 1777519926 | 13.33° C | 36% | 1015.5 hPa | 0 mm | - | 0 W/m² | - |
| 1777519326 | 12.78° C | 38% | 1015.3 hPa | 0 mm | - | 0 W/m² | - |
| 1777518726 | 12.78° C | 38% | 1015.3 hPa | 0 mm | - | 0 W/m² | - |
| 1777518126 | 12.78° C | 39% | 1015.1 hPa | 0 mm | - | 0 W/m² | - |
| 1777517526 | 12.78° C | 38% | 1014.9 hPa | 0 mm | - | 0 W/m² | - |
| 1777516926 | 13.33° C | 38% | 1014.9 hPa | 0 mm | - | 0 W/m² | - |
| 1777516326 | 13.33° C | 38% | 1014.8 hPa | 0 mm | - | 0 W/m² | - |
| 1777515726 | 13.33° C | 38% | 1014.7 hPa | 0 mm | - | 5 W/m² | - |
| 1777515126 | 13.89° C | 37% | 1014.8 hPa | 0 mm | - | 12 W/m² | - |
| 1777514526 | 14.44° C | 36% | 1014.8 hPa | 0 mm | - | 30 W/m² | - |
| 1777513926 | 15° C | 35% | 1014.8 hPa | 0 mm | - | 30 W/m² | - |
| 1777513326 | 15° C | 32% | 1014.6 hPa | 0 mm | - | 28 W/m² | - |
* Rain latest hour (hover to see other rain measurements)
** Current wind speed in m/s (hover to see current wind gust speed)